Flag for USA

Past Weather in Cincinnati, Ohio, USA — Yesterday and Last 2 Weeks

Currently: 37 °F. Clear. (Weather station: Cincinnati Municipal Airport Lunken Field, USA). See more current weather

Past Weather in Cincinnati — Graph

°F

Cincinnati Temperature Yesterday

Maximum temperature yesterday: 53 °F (at 2:53 pm)
Minimum temperature yesterday: 33 °F (at 3:53 am)
Average temperature yesterday: 41 °F

High & Low Weather Summary for the Past Weeks

 TemperatureHumidityPressure
High53 °F (Jan 21, 2:53 pm)96% (Jan 10, 9:53 am)30.45 "Hg (Jan 10, 9:53 am)
Low19 °F (Jan 10, 7:53 am)31% (Jan 21, 3:53 pm)29.57 "Hg (Jan 15, 4:12 am)
Average34 °F72%30.05 "Hg
* Reported Jan 6 11:53 pm — Jan 21 11:53 pm, Cincinnati. Weather by CustomWeather, © 2021

Note: Actual official high and low records may vary slightly from our data, if they occured in-between our weather recording intervals... More about our weather records

Cincinnati Weather History for the Previous 24 Hours

Scroll right to see more
 ConditionsComfort  
Time TempWeatherWind HumidityBarometerVisibility
11:53 pm
Thu, Jan 21
36 °FClear.8 mph59%29.87 "Hg10 mi
10:53 pm39 °FClear.9 mph53%29.88 "Hg10 mi
9:53 pm40 °FClear.10 mph51%29.87 "Hg10 mi
8:53 pm41 °FClear.9 mph47%29.87 "Hg10 mi
7:53 pm41 °FClear.8 mph45%29.87 "Hg10 mi
6:53 pm38 °FClear.7 mph48%29.85 "Hg10 mi
5:53 pm44 °FClear.10 mph40%29.83 "Hg10 mi
4:53 pm50 °FSunny.14 mph35%29.83 "Hg10 mi
3:53 pm52 °FSunny.15 mph31%29.83 "Hg10 mi
2:53 pm53 °FSunny.15 mph32%29.82 "Hg10 mi
1:53 pm51 °FSunny.13 mph39%29.82 "Hg10 mi
12:53 pm49 °FSunny.13 mph50%29.85 "Hg10 mi
11:53 am46 °FSunny.10 mph58%29.88 "Hg10 mi
10:53 am43 °FScattered clouds.14 mph68%29.91 "Hg10 mi
9:53 am41 °FScattered clouds.14 mph70%29.91 "Hg10 mi
8:53 am36 °FPassing clouds.7 mph82%29.91 "Hg10 mi
7:53 am35 °FPassing clouds.7 mph82%29.91 "Hg10 mi
6:53 am36 °FClear.9 mph75%29.91 "Hg10 mi
5:53 am34 °FClear.9 mph73%29.90 "Hg10 mi
4:53 am35 °FClear.10 mph61%29.90 "Hg10 mi
3:53 am33 °FClear.9 mph61%29.91 "Hg10 mi
2:53 am35 °FClear.9 mph52%29.92 "Hg10 mi
1:53 am37 °FOvercast.10 mph46%29.94 "Hg10 mi
Weather by CustomWeather, © 2021

See weather overview